Terminal Aerodrome Forecast
Issued by NWS Boston, MA

Home | Current Version | Previous Version | Text Only | Print | Product List | Glossary On
Versions: 1 2 3 4 5 6 7 8 9 10 11 12 13 14 15 16 17 18 19 20 21 22 23 24 25 26 27 28 29 30 31 32 33 34 35 36 37 38 39 40 41
968
FTUS41 KBOX 301125
TAFPVD
TAF
KPVD 301125Z 3012/3112 00000KT 2SM SHRA BR OVC020
     FM301400 VRB03KT 3SM SHRA BR OVC015
     FM301700 18005KT 3SM BR VCSH OVC010
     FM301900 20008KT P6SM VCSH BKN010
     FM302100 22012G20KT P6SM BKN010
     FM310300 22007KT P6SM OVC100=

USA.gov is the U.S. government's official web portal to all federal, state and local government web resources and services.